sensor_id;sensor_type;location;lat;lon;timestamp;pressure;altitude;pressure_sealevel;temperature;humidity
13235;BME280;6683;48.506;9.050;2023-04-24T00:01:32;97109.66;;;13.99;57.29
13235;BME280;6683;48.506;9.050;2023-04-24T00:04:36;97083.13;;;13.99;57.43
13235;BME280;6683;48.506;9.050;2023-04-24T00:07:41;97091.66;;;14.01;57.36
13235;BME280;6683;48.506;9.050;2023-04-24T00:10:44;97099.16;;;14.04;57.36
13235;BME280;6683;48.506;9.050;2023-04-24T00:13:47;97099.50;;;14.08;57.54
13235;BME280;6683;48.506;9.050;2023-04-24T00:16:49;97104.06;;;14.12;57.30
13235;BME280;6683;48.506;9.050;2023-04-24T00:19:53;97103.38;;;14.17;57.36
13235;BME280;6683;48.506;9.050;2023-04-24T00:22:59;97105.34;;;14.21;57.28
13235;BME280;6683;48.506;9.050;2023-04-24T00:26:02;97107.75;;;14.23;57.35
13235;BME280;6683;48.506;9.050;2023-04-24T00:29:04;97111.44;;;14.22;57.08
13235;BME280;6683;48.506;9.050;2023-04-24T00:32:07;97112.47;;;14.21;57.20
13235;BME280;6683;48.506;9.050;2023-04-24T00:35:11;97110.06;;;14.19;57.22
13235;BME280;6683;48.506;9.050;2023-04-24T00:38:14;97107.16;;;14.21;57.37
13235;BME280;6683;48.506;9.050;2023-04-24T00:41:16;97103.50;;;14.22;57.37
13235;BME280;6683;48.506;9.050;2023-04-24T00:44:19;97099.00;;;14.22;57.36
13235;BME280;6683;48.506;9.050;2023-04-24T00:47:22;97101.66;;;14.22;57.42
13235;BME280;6683;48.506;9.050;2023-04-24T00:50:26;97097.13;;;14.23;57.39
13235;BME280;6683;48.506;9.050;2023-04-24T00:53:28;97097.69;;;14.25;57.47
13235;BME280;6683;48.506;9.050;2023-04-24T00:56:31;97094.81;;;14.26;57.37
13235;BME280;6683;48.506;9.050;2023-04-24T00:59:34;97095.44;;;14.28;57.42
13235;BME280;6683;48.506;9.050;2023-04-24T01:02:38;97096.00;;;14.30;57.38
13235;BME280;6683;48.506;9.050;2023-04-24T01:05:46;97098.41;;;14.32;57.38
13235;BME280;6683;48.506;9.050;2023-04-24T01:08:49;97094.72;;;14.33;57.55
13235;BME280;6683;48.506;9.050;2023-04-24T01:11:51;97092.84;;;14.33;57.57
13235;BME280;6683;48.506;9.050;2023-04-24T01:14:55;97097.13;;;14.34;57.36
13235;BME280;6683;48.506;9.050;2023-04-24T01:17:58;97093.66;;;14.34;57.81
13235;BME280;6683;48.506;9.050;2023-04-24T01:21:04;97092.28;;;14.31;57.99
13235;BME280;6683;48.506;9.050;2023-04-24T01:24:09;97076.59;;;14.30;58.03
13235;BME280;6683;48.506;9.050;2023-04-24T01:27:12;97072.78;;;14.26;58.13
13235;BME280;6683;48.506;9.050;2023-04-24T01:30:15;97066.59;;;14.20;58.34
13235;BME280;6683;48.506;9.050;2023-04-24T01:33:17;97064.06;;;14.14;58.37
13235;BME280;6683;48.506;9.050;2023-04-24T01:36:22;97063.38;;;14.07;58.45
13235;BME280;6683;48.506;9.050;2023-04-24T01:39:26;97053.97;;;13.99;58.74
13235;BME280;6683;48.506;9.050;2023-04-24T01:42:29;97057.31;;;13.95;58.36
13235;BME280;6683;48.506;9.050;2023-04-24T01:45:32;97056.63;;;13.88;58.75
13235;BME280;6683;48.506;9.050;2023-04-24T01:48:35;97061.34;;;13.86;58.91
13235;BME280;6683;48.506;9.050;2023-04-24T01:51:37;97059.19;;;13.83;59.01
13235;BME280;6683;48.506;9.050;2023-04-24T01:54:41;97068.66;;;13.79;58.92
13235;BME280;6683;48.506;9.050;2023-04-24T01:57:43;97074.66;;;13.74;59.04
13235;BME280;6683;48.506;9.050;2023-04-24T02:00:46;97075.13;;;13.71;59.23
13235;BME280;6683;48.506;9.050;2023-04-24T02:03:48;97078.25;;;13.68;59.42
13235;BME280;6683;48.506;9.050;2023-04-24T02:06:51;97078.69;;;13.65;59.61
13235;BME280;6683;48.506;9.050;2023-04-24T02:09:55;97080.19;;;13.61;59.55
13235;BME280;6683;48.506;9.050;2023-04-24T02:12:57;97084.94;;;13.59;59.81
13235;BME280;6683;48.506;9.050;2023-04-24T02:16:00;97081.94;;;13.55;59.77
13235;BME280;6683;48.506;9.050;2023-04-24T02:19:03;97083.44;;;13.51;59.90
13235;BME280;6683;48.506;9.050;2023-04-24T02:22:05;97087.38;;;13.49;60.04
13235;BME280;6683;48.506;9.050;2023-04-24T02:25:11;97083.56;;;13.45;60.23
13235;BME280;6683;48.506;9.050;2023-04-24T02:28:13;97071.34;;;13.44;60.38
13235;BME280;6683;48.506;9.050;2023-04-24T02:31:16;97067.88;;;13.43;60.37
13235;BME280;6683;48.506;9.050;2023-04-24T02:34:18;97071.81;;;13.41;60.44
13235;BME280;6683;48.506;9.050;2023-04-24T02:37:21;97074.09;;;13.37;60.48
13235;BME280;6683;48.506;9.050;2023-04-24T02:40:24;97075.97;;;13.37;60.77
13235;BME280;6683;48.506;9.050;2023-04-24T02:43:27;97077.00;;;13.36;60.84
13235;BME280;6683;48.506;9.050;2023-04-24T02:46:29;97073.75;;;13.34;60.90
13235;BME280;6683;48.506;9.050;2023-04-24T02:49:32;97072.38;;;13.31;60.75
13235;BME280;6683;48.506;9.050;2023-04-24T02:52:34;97081.13;;;13.32;60.88
13235;BME280;6683;48.506;9.050;2023-04-24T02:55:38;97085.41;;;13.33;61.21
13235;BME280;6683;48.506;9.050;2023-04-24T02:58:41;97097.63;;;13.34;61.19
13235;BME280;6683;48.506;9.050;2023-04-24T03:01:44;97090.94;;;13.31;61.22
13235;BME280;6683;48.506;9.050;2023-04-24T03:04:47;97094.63;;;13.30;61.31
13235;BME280;6683;48.506;9.050;2023-04-24T03:07:50;97087.69;;;13.29;61.60
13235;BME280;6683;48.506;9.050;2023-04-24T03:10:54;97090.34;;;13.29;61.64
13235;BME280;6683;48.506;9.050;2023-04-24T03:13:57;97082.16;;;13.31;61.80
13235;BME280;6683;48.506;9.050;2023-04-24T03:16:59;97086.44;;;13.32;61.90
13235;BME280;6683;48.506;9.050;2023-04-24T03:20:02;97078.25;;;13.33;61.92
13235;BME280;6683;48.506;9.050;2023-04-24T03:23:06;97073.75;;;13.34;61.97
13235;BME280;6683;48.506;9.050;2023-04-24T03:26:10;97060.75;;;13.32;62.03
13235;BME280;6683;48.506;9.050;2023-04-24T03:29:12;97056.72;;;13.30;62.16
13235;BME280;6683;48.506;9.050;2023-04-24T03:32:15;97069.38;;;13.28;62.25
13235;BME280;6683;48.506;9.050;2023-04-24T03:35:18;97060.06;;;13.25;62.27
13235;BME280;6683;48.506;9.050;2023-04-24T03:38:22;97060.53;;;13.22;62.51
13235;BME280;6683;48.506;9.050;2023-04-24T03:41:25;97058.09;;;13.21;62.39
13235;BME280;6683;48.506;9.050;2023-04-24T03:44:28;97070.75;;;13.19;62.34
13235;BME280;6683;48.506;9.050;2023-04-24T03:47:31;97058.78;;;13.16;62.34
13235;BME280;6683;48.506;9.050;2023-04-24T03:50:33;97049.22;;;13.15;62.49
13235;BME280;6683;48.506;9.050;2023-04-24T03:53:36;97053.13;;;13.13;62.52
13235;BME280;6683;48.506;9.050;2023-04-24T03:56:40;97045.88;;;13.08;62.37
13235;BME280;6683;48.506;9.050;2023-04-24T03:59:42;97061.06;;;13.01;62.14
13235;BME280;6683;48.506;9.050;2023-04-24T04:02:45;97073.59;;;12.94;62.51
13235;BME280;6683;48.506;9.050;2023-04-24T04:05:47;97073.13;;;12.85;62.42
13235;BME280;6683;48.506;9.050;2023-04-24T04:08:50;97070.56;;;12.79;62.52
13235;BME280;6683;48.506;9.050;2023-04-24T04:11:54;97072.28;;;12.73;62.64
13235;BME280;6683;48.506;9.050;2023-04-24T04:14:57;97084.50;;;12.74;62.80
13235;BME280;6683;48.506;9.050;2023-04-24T04:18:00;97080.47;;;12.72;62.81
13235;BME280;6683;48.506;9.050;2023-04-24T04:21:02;97083.31;;;12.70;62.72
13235;BME280;6683;48.506;9.050;2023-04-24T04:24:05;97088.84;;;12.69;62.85
13235;BME280;6683;48.506;9.050;2023-04-24T04:27:09;97092.56;;;12.68;62.94
13235;BME280;6683;48.506;9.050;2023-04-24T04:30:12;97097.03;;;12.67;62.88
13235;BME280;6683;48.506;9.050;2023-04-24T04:33:14;97108.44;;;12.68;62.99
13235;BME280;6683;48.506;9.050;2023-04-24T04:36:17;97132.84;;;12.70;63.06
13235;BME280;6683;48.506;9.050;2023-04-24T04:39:20;97147.91;;;12.69;63.13
13235;BME280;6683;48.506;9.050;2023-04-24T04:42:24;97136.50;;;12.69;62.85
13235;BME280;6683;48.506;9.050;2023-04-24T04:45:26;97148.16;;;12.68;63.28
13235;BME280;6683;48.506;9.050;2023-04-24T04:48:29;97164.03;;;12.68;63.47
13235;BME280;6683;48.506;9.050;2023-04-24T04:51:33;97151.00;;;12.66;63.47
13235;BME280;6683;48.506;9.050;2023-04-24T04:54:35;97161.59;;;12.66;63.68
13235;BME280;6683;48.506;9.050;2023-04-24T04:57:39;97169.53;;;12.66;64.06
13235;BME280;6683;48.506;9.050;2023-04-24T05:00:42;97178.88;;;12.69;64.13
13235;BME280;6683;48.506;9.050;2023-04-24T05:03:44;97174.63;;;12.68;64.51
13235;BME280;6683;48.506;9.050;2023-04-24T05:06:47;97174.03;;;12.66;64.67
13235;BME280;6683;48.506;9.050;2023-04-24T05:09:49;97180.81;;;12.62;64.85
13235;BME280;6683;48.506;9.050;2023-04-24T05:12:53;97179.84;;;12.56;64.92
13235;BME280;6683;48.506;9.050;2023-04-24T05:15:57;97182.56;;;12.50;65.18
13235;BME280;6683;48.506;9.050;2023-04-24T05:19:00;97200.16;;;12.44;65.47
13235;BME280;6683;48.506;9.050;2023-04-24T05:22:02;97203.47;;;12.40;65.62
13235;BME280;6683;48.506;9.050;2023-04-24T05:25:07;97216.56;;;12.35;65.90
13235;BME280;6683;48.506;9.050;2023-04-24T05:28:11;97225.94;;;12.31;66.20
13235;BME280;6683;48.506;9.050;2023-04-24T05:31:14;97225.59;;;12.27;66.29
13235;BME280;6683;48.506;9.050;2023-04-24T05:34:18;97224.78;;;12.27;66.70
13235;BME280;6683;48.506;9.050;2023-04-24T05:37:21;97224.78;;;12.27;66.56
13235;BME280;6683;48.506;9.050;2023-04-24T05:40:24;97227.41;;;12.27;66.73
13235;BME280;6683;48.506;9.050;2023-04-24T05:43:28;97238.81;;;12.27;67.35
13235;BME280;6683;48.506;9.050;2023-04-24T05:46:30;97250.81;;;12.30;67.36
13235;BME280;6683;48.506;9.050;2023-04-24T05:49:33;97257.69;;;12.31;67.50
13235;BME280;6683;48.506;9.050;2023-04-24T05:52:36;97254.63;;;12.34;67.68
13235;BME280;6683;48.506;9.050;2023-04-24T05:55:38;97265.16;;;12.40;67.98
13235;BME280;6683;48.506;9.050;2023-04-24T05:58:42;97254.72;;;12.45;67.85
13235;BME280;6683;48.506;9.050;2023-04-24T06:01:44;97262.38;;;12.53;67.93
13235;BME280;6683;48.506;9.050;2023-04-24T06:04:47;97273.06;;;12.58;67.96
13235;BME280;6683;48.506;9.050;2023-04-24T06:07:50;97264.47;;;12.63;68.11
13235;BME280;6683;48.506;9.050;2023-04-24T06:10:53;97266.22;;;12.69;68.20
13235;BME280;6683;48.506;9.050;2023-04-24T06:13:56;97270.63;;;12.75;68.51
13235;BME280;6683;48.506;9.050;2023-04-24T06:16:59;97266.91;;;12.82;68.58
13235;BME280;6683;48.506;9.050;2023-04-24T06:20:01;97266.34;;;12.92;68.55
13235;BME280;6683;48.506;9.050;2023-04-24T06:23:06;97267.88;;;13.00;68.58
13235;BME280;6683;48.506;9.050;2023-04-24T06:26:09;97262.97;;;13.03;68.02
13235;BME280;6683;48.506;9.050;2023-04-24T06:29:13;97251.78;;;13.01;68.49
13235;BME280;6683;48.506;9.050;2023-04-24T06:32:15;97253.78;;;13.06;68.77
13235;BME280;6683;48.506;9.050;2023-04-24T06:35:18;97253.91;;;13.11;68.89
13235;BME280;6683;48.506;9.050;2023-04-24T06:38:20;97256.63;;;13.22;69.12
13235;BME280;6683;48.506;9.050;2023-04-24T06:41:23;97255.03;;;13.33;69.16
13235;BME280;6683;48.506;9.050;2023-04-24T06:44:27;97260.94;;;13.46;69.25
13235;BME280;6683;48.506;9.050;2023-04-24T06:47:29;97253.59;;;13.60;69.48
13235;BME280;6683;48.506;9.050;2023-04-24T06:50:32;97249.44;;;13.76;69.39
13235;BME280;6683;48.506;9.050;2023-04-24T06:53:35;97260.19;;;13.92;69.31
13235;BME280;6683;48.506;9.050;2023-04-24T06:56:37;97261.00;;;14.04;69.11
13235;BME280;6683;48.506;9.050;2023-04-24T06:59:41;97263.53;;;14.22;69.19
13235;BME280;6683;48.506;9.050;2023-04-24T07:02:44;97261.22;;;14.37;68.92
13235;BME280;6683;48.506;9.050;2023-04-24T07:05:46;97259.97;;;14.52;68.89
13235;BME280;6683;48.506;9.050;2023-04-24T07:08:48;97260.50;;;14.65;68.62
13235;BME280;6683;48.506;9.050;2023-04-24T07:11:51;97269.94;;;14.73;68.27
13235;BME280;6683;48.506;9.050;2023-04-24T07:14:56;97286.00;;;14.78;68.09
13235;BME280;6683;48.506;9.050;2023-04-24T07:17:58;97280.78;;;14.83;67.79
13235;BME280;6683;48.506;9.050;2023-04-24T07:21:00;97294.66;;;14.85;67.68
13235;BME280;6683;48.506;9.050;2023-04-24T07:24:03;97302.38;;;14.86;67.41
13235;BME280;6683;48.506;9.050;2023-04-24T07:27:05;97305.28;;;14.85;67.21
13235;BME280;6683;48.506;9.050;2023-04-24T07:30:10;97310.22;;;14.81;67.03
13235;BME280;6683;48.506;9.050;2023-04-24T07:33:13;97312.31;;;14.79;66.89
13235;BME280;6683;48.506;9.050;2023-04-24T07:36:16;97309.66;;;14.79;66.56
13235;BME280;6683;48.506;9.050;2023-04-24T07:39:19;97308.63;;;14.80;66.61
13235;BME280;6683;48.506;9.050;2023-04-24T07:42:21;97318.06;;;14.88;66.67
13235;BME280;6683;48.506;9.050;2023-04-24T07:45:25;97313.19;;;14.96;66.69
13235;BME280;6683;48.506;9.050;2023-04-24T07:48:29;97323.69;;;15.03;66.38
13235;BME280;6683;48.506;9.050;2023-04-24T07:51:31;97328.56;;;15.06;66.27
13235;BME280;6683;48.506;9.050;2023-04-24T07:54:39;97331.53;;;15.09;65.78
13235;BME280;6683;48.506;9.050;2023-04-24T07:57:41;97337.31;;;15.18;66.40
13235;BME280;6683;48.506;9.050;2023-04-24T08:00:45;97340.72;;;15.30;66.21
13235;BME280;6683;48.506;9.050;2023-04-24T08:03:47;97344.72;;;15.44;66.03
13235;BME280;6683;48.506;9.050;2023-04-24T08:06:49;97345.66;;;15.50;65.35
13235;BME280;6683;48.506;9.050;2023-04-24T08:09:52;97357.31;;;15.49;64.82
13235;BME280;6683;48.506;9.050;2023-04-24T08:12:54;97363.13;;;15.46;64.75
13235;BME280;6683;48.506;9.050;2023-04-24T08:15:59;97364.03;;;15.40;64.31
13235;BME280;6683;48.506;9.050;2023-04-24T08:19:01;97367.63;;;15.34;64.29
13235;BME280;6683;48.506;9.050;2023-04-24T08:22:04;97373.75;;;15.34;64.54
13235;BME280;6683;48.506;9.050;2023-04-24T08:25:08;97380.22;;;15.38;64.12
13235;BME280;6683;48.506;9.050;2023-04-24T08:28:11;97379.66;;;15.36;63.87
13235;BME280;6683;48.506;9.050;2023-04-24T08:31:14;97386.50;;;15.32;63.72
13235;BME280;6683;48.506;9.050;2023-04-24T08:34:17;97377.69;;;15.32;63.49
13235;BME280;6683;48.506;9.050;2023-04-24T08:37:19;97377.47;;;15.33;63.57
13235;BME280;6683;48.506;9.050;2023-04-24T08:40:27;97383.44;;;15.40;64.01
13235;BME280;6683;48.506;9.050;2023-04-24T08:43:32;97374.91;;;15.50;63.32
13235;BME280;6683;48.506;9.050;2023-04-24T08:46:39;97375.91;;;15.60;63.35
13235;BME280;6683;48.506;9.050;2023-04-24T08:49:43;97377.94;;;15.70;62.87
13235;BME280;6683;48.506;9.050;2023-04-24T08:52:48;97368.47;;;15.90;62.92
13235;BME280;6683;48.506;9.050;2023-04-24T08:55:52;97394.22;;;16.18;62.37
13235;BME280;6683;48.506;9.050;2023-04-24T08:58:56;97388.69;;;16.53;62.45
13235;BME280;6683;48.506;9.050;2023-04-24T09:02:00;97388.38;;;16.88;61.49
13235;BME280;6683;48.506;9.050;2023-04-24T09:05:04;97390.41;;;17.19;61.22
13235;BME280;6683;48.506;9.050;2023-04-24T09:08:08;97391.25;;;17.46;60.71
13235;BME280;6683;48.506;9.050;2023-04-24T09:11:12;97391.00;;;17.69;60.50
13235;BME280;6683;48.506;9.050;2023-04-24T09:14:15;97409.41;;;17.92;59.91
13235;BME280;6683;48.506;9.050;2023-04-24T09:17:19;97385.53;;;18.07;59.66
13235;BME280;6683;48.506;9.050;2023-04-24T09:20:23;97399.56;;;18.24;59.35
13235;BME280;6683;48.506;9.050;2023-04-24T09:23:27;97397.59;;;18.42;58.88
13235;BME280;6683;48.506;9.050;2023-04-24T09:26:31;97397.63;;;18.47;58.01
13235;BME280;6683;48.506;9.050;2023-04-24T09:29:34;97402.16;;;18.46;57.88
13235;BME280;6683;48.506;9.050;2023-04-24T09:32:38;97406.50;;;18.25;57.18
13235;BME280;6683;48.506;9.050;2023-04-24T09:35:41;97412.22;;;18.07;57.50
13235;BME280;6683;48.506;9.050;2023-04-24T09:38:44;97418.75;;;17.90;57.78
13235;BME280;6683;48.506;9.050;2023-04-24T09:41:49;97425.03;;;17.79;57.64
13235;BME280;6683;48.506;9.050;2023-04-24T09:44:52;97439.88;;;17.70;57.65
13235;BME280;6683;48.506;9.050;2023-04-24T09:47:57;97436.28;;;17.59;57.58
13235;BME280;6683;48.506;9.050;2023-04-24T09:51:01;97446.81;;;17.49;57.84
13235;BME280;6683;48.506;9.050;2023-04-24T09:54:11;97445.97;;;17.48;57.51
13235;BME280;6683;48.506;9.050;2023-04-24T09:57:16;97443.56;;;17.47;57.21
13235;BME280;6683;48.506;9.050;2023-04-24T10:00:23;97452.19;;;17.32;57.23
13235;BME280;6683;48.506;9.050;2023-04-24T10:03:30;97443.81;;;17.24;57.01
13235;BME280;6683;48.506;9.050;2023-04-24T10:06:34;97458.50;;;17.26;57.16
13235;BME280;6683;48.506;9.050;2023-04-24T10:09:36;97448.09;;;17.25;56.89
13235;BME280;6683;48.506;9.050;2023-04-24T10:12:39;97453.56;;;17.35;56.64
13235;BME280;6683;48.506;9.050;2023-04-24T10:15:43;97445.84;;;17.55;56.69
13235;BME280;6683;48.506;9.050;2023-04-24T10:18:48;97431.94;;;17.75;56.22
13235;BME280;6683;48.506;9.050;2023-04-24T10:21:53;97436.63;;;17.89;55.68
13235;BME280;6683;48.506;9.050;2023-04-24T10:24:57;97435.16;;;18.03;55.41
13235;BME280;6683;48.506;9.050;2023-04-24T10:28:02;97440.09;;;18.16;55.46
13235;BME280;6683;48.506;9.050;2023-04-24T10:31:04;97450.81;;;18.21;54.85
13235;BME280;6683;48.506;9.050;2023-04-24T10:34:09;97463.59;;;18.14;54.53
13235;BME280;6683;48.506;9.050;2023-04-24T10:37:14;97465.03;;;18.00;54.47
13235;BME280;6683;48.506;9.050;2023-04-24T10:40:19;97471.44;;;17.78;54.19
13235;BME280;6683;48.506;9.050;2023-04-24T10:43:26;97473.63;;;17.59;54.50
13235;BME280;6683;48.506;9.050;2023-04-24T10:46:30;97483.28;;;17.43;54.77
13235;BME280;6683;48.506;9.050;2023-04-24T10:49:34;97484.38;;;17.26;54.66
13235;BME280;6683;48.506;9.050;2023-04-24T10:52:46;97490.41;;;17.00;54.37
13235;BME280;6683;48.506;9.050;2023-04-24T10:55:51;97499.69;;;16.81;54.65
13235;BME280;6683;48.506;9.050;2023-04-24T10:58:54;97500.00;;;16.67;55.05
13235;BME280;6683;48.506;9.050;2023-04-24T11:01:56;97503.09;;;16.59;55.40
13235;BME280;6683;48.506;9.050;2023-04-24T11:05:03;97499.41;;;16.49;55.72
13235;BME280;6683;48.506;9.050;2023-04-24T11:08:14;97508.13;;;16.44;56.07
13235;BME280;6683;48.506;9.050;2023-04-24T11:11:18;97505.19;;;16.46;55.75
13235;BME280;6683;48.506;9.050;2023-04-24T11:14:21;97504.50;;;16.50;55.94
13235;BME280;6683;48.506;9.050;2023-04-24T11:17:29;97503.19;;;16.64;56.30
13235;BME280;6683;48.506;9.050;2023-04-24T11:20:34;97506.47;;;16.88;55.92
13235;BME280;6683;48.506;9.050;2023-04-24T11:23:36;97515.41;;;17.15;55.50
13235;BME280;6683;48.506;9.050;2023-04-24T11:26:39;97513.97;;;17.24;55.38
13235;BME280;6683;48.506;9.050;2023-04-24T11:29:45;97520.03;;;17.20;55.27
13235;BME280;6683;48.506;9.050;2023-04-24T11:32:51;97525.53;;;17.13;55.17
13235;BME280;6683;48.506;9.050;2023-04-24T11:35:54;97529.91;;;17.03;55.04
13235;BME280;6683;48.506;9.050;2023-04-24T11:38:57;97539.84;;;16.91;55.29
13235;BME280;6683;48.506;9.050;2023-04-24T11:42:02;97551.38;;;16.79;55.35
13235;BME280;6683;48.506;9.050;2023-04-24T11:45:09;97545.16;;;16.74;55.32
13235;BME280;6683;48.506;9.050;2023-04-24T11:48:12;97556.16;;;16.77;55.31
13235;BME280;6683;48.506;9.050;2023-04-24T11:51:15;97547.25;;;16.72;55.12
13235;BME280;6683;48.506;9.050;2023-04-24T11:54:18;97548.47;;;16.64;55.38
13235;BME280;6683;48.506;9.050;2023-04-24T11:57:21;97545.28;;;16.51;55.24
13235;BME280;6683;48.506;9.050;2023-04-24T12:00:25;97556.56;;;16.41;55.45
13235;BME280;6683;48.506;9.050;2023-04-24T12:03:29;97560.41;;;16.34;55.42
13235;BME280;6683;48.506;9.050;2023-04-24T12:06:32;97566.91;;;16.26;55.87
13235;BME280;6683;48.506;9.050;2023-04-24T12:09:42;97570.41;;;16.15;55.98
13235;BME280;6683;48.506;9.050;2023-04-24T12:12:45;97572.06;;;16.05;56.16
13235;BME280;6683;48.506;9.050;2023-04-24T12:15:51;97567.69;;;15.98;56.24
13235;BME280;6683;48.506;9.050;2023-04-24T12:18:53;97574.88;;;15.98;56.38
13235;BME280;6683;48.506;9.050;2023-04-24T12:22:05;97571.06;;;15.94;56.77
13235;BME280;6683;48.506;9.050;2023-04-24T12:25:10;97590.75;;;15.93;56.27
13235;BME280;6683;48.506;9.050;2023-04-24T12:28:13;97589.81;;;15.87;56.21
13235;BME280;6683;48.506;9.050;2023-04-24T12:31:16;97592.84;;;15.79;56.24
13235;BME280;6683;48.506;9.050;2023-04-24T12:34:19;97592.75;;;15.74;56.29
13235;BME280;6683;48.506;9.050;2023-04-24T12:37:26;97585.47;;;15.70;56.42
13235;BME280;6683;48.506;9.050;2023-04-24T12:40:29;97593.56;;;15.63;56.18
13235;BME280;6683;48.506;9.050;2023-04-24T12:43:33;97575.31;;;15.55;56.24
13235;BME280;6683;48.506;9.050;2023-04-24T12:46:35;97584.53;;;15.53;56.59
13235;BME280;6683;48.506;9.050;2023-04-24T12:49:38;97583.53;;;15.54;56.23
13235;BME280;6683;48.506;9.050;2023-04-24T12:52:42;97563.28;;;15.53;56.31
13235;BME280;6683;48.506;9.050;2023-04-24T12:55:45;97567.44;;;15.60;56.39
13235;BME280;6683;48.506;9.050;2023-04-24T12:58:53;97564.41;;;15.68;56.44
13235;BME280;6683;48.506;9.050;2023-04-24T13:01:55;97562.28;;;15.82;56.43
13235;BME280;6683;48.506;9.050;2023-04-24T13:04:58;97562.28;;;15.93;56.15
13235;BME280;6683;48.506;9.050;2023-04-24T13:08:02;97566.38;;;16.13;56.33
13235;BME280;6683;48.506;9.050;2023-04-24T13:11:05;97565.41;;;16.30;56.27
13235;BME280;6683;48.506;9.050;2023-04-24T13:14:07;97555.94;;;16.51;56.35
13235;BME280;6683;48.506;9.050;2023-04-24T13:17:10;97556.47;;;16.64;56.17
13235;BME280;6683;48.506;9.050;2023-04-24T13:20:14;97569.88;;;16.69;55.76
13235;BME280;6683;48.506;9.050;2023-04-24T13:23:17;97563.72;;;16.69;55.89
13235;BME280;6683;48.506;9.050;2023-04-24T13:26:20;97564.28;;;16.71;55.75
13235;BME280;6683;48.506;9.050;2023-04-24T13:29:23;97558.19;;;16.70;55.96
13235;BME280;6683;48.506;9.050;2023-04-24T13:32:25;97559.47;;;16.68;55.39
13235;BME280;6683;48.506;9.050;2023-04-24T13:35:29;97550.56;;;16.62;55.57
13235;BME280;6683;48.506;9.050;2023-04-24T13:38:33;97544.91;;;16.59;55.21
13235;BME280;6683;48.506;9.050;2023-04-24T13:41:35;97540.06;;;16.56;55.61
13235;BME280;6683;48.506;9.050;2023-04-24T13:44:38;97545.03;;;16.52;55.58
13235;BME280;6683;48.506;9.050;2023-04-24T13:47:40;97542.94;;;16.54;55.71
13235;BME280;6683;48.506;9.050;2023-04-24T13:50:43;97541.41;;;16.58;55.66
13235;BME280;6683;48.506;9.050;2023-04-24T13:53:50;97540.94;;;16.61;55.65
13235;BME280;6683;48.506;9.050;2023-04-24T13:56:52;97543.38;;;16.63;55.81
13235;BME280;6683;48.506;9.050;2023-04-24T13:59:55;97532.72;;;16.63;55.50
13235;BME280;6683;48.506;9.050;2023-04-24T14:03:01;97539.81;;;16.57;55.20
13235;BME280;6683;48.506;9.050;2023-04-24T14:06:04;97540.22;;;16.49;55.36
13235;BME280;6683;48.506;9.050;2023-04-24T14:09:08;97534.19;;;16.42;55.14
13235;BME280;6683;48.506;9.050;2023-04-24T14:12:10;97536.28;;;16.40;55.23
13235;BME280;6683;48.506;9.050;2023-04-24T14:15:13;97543.13;;;16.36;55.06
13235;BME280;6683;48.506;9.050;2023-04-24T14:18:16;97544.09;;;16.30;55.21
13235;BME280;6683;48.506;9.050;2023-04-24T14:21:19;97542.94;;;16.26;54.95
13235;BME280;6683;48.506;9.050;2023-04-24T14:24:22;97539.41;;;16.21;55.21
13235;BME280;6683;48.506;9.050;2023-04-24T14:27:25;97544.38;;;16.17;55.54
13235;BME280;6683;48.506;9.050;2023-04-24T14:30:27;97546.47;;;16.15;55.40
13235;BME280;6683;48.506;9.050;2023-04-24T14:33:30;97547.53;;;16.14;55.29
13235;BME280;6683;48.506;9.050;2023-04-24T14:36:32;97555.97;;;16.11;55.46
13235;BME280;6683;48.506;9.050;2023-04-24T14:39:37;97553.56;;;16.10;55.22
13235;BME280;6683;48.506;9.050;2023-04-24T14:42:39;97549.63;;;16.12;55.46
13235;BME280;6683;48.506;9.050;2023-04-24T14:45:42;97547.72;;;16.13;55.49
13235;BME280;6683;48.506;9.050;2023-04-24T14:48:45;97544.28;;;16.12;55.20
13235;BME280;6683;48.506;9.050;2023-04-24T14:51:48;97538.97;;;16.12;55.49
13235;BME280;6683;48.506;9.050;2023-04-24T14:54:52;97543.16;;;16.08;55.34
13235;BME280;6683;48.506;9.050;2023-04-24T14:57:54;97543.59;;;16.05;55.70
13235;BME280;6683;48.506;9.050;2023-04-24T15:00:56;97534.03;;;16.04;55.59
13235;BME280;6683;48.506;9.050;2023-04-24T15:03:59;97531.34;;;16.04;55.65
13235;BME280;6683;48.506;9.050;2023-04-24T15:07:01;97531.34;;;16.04;55.67
13235;BME280;6683;48.506;9.050;2023-04-24T15:10:07;97535.63;;;16.05;55.80
13235;BME280;6683;48.506;9.050;2023-04-24T15:13:10;97533.53;;;16.07;55.97
13235;BME280;6683;48.506;9.050;2023-04-24T15:16:12;97535.16;;;16.08;55.95
13235;BME280;6683;48.506;9.050;2023-04-24T15:19:15;97528.78;;;16.09;55.81
13235;BME280;6683;48.506;9.050;2023-04-24T15:22:18;97542.34;;;16.08;55.93
13235;BME280;6683;48.506;9.050;2023-04-24T15:25:22;97535.72;;;16.10;56.05
13235;BME280;6683;48.506;9.050;2023-04-24T15:28:25;97544.50;;;16.11;55.93
13235;BME280;6683;48.506;9.050;2023-04-24T15:31:27;97538.72;;;16.14;56.06
13235;BME280;6683;48.506;9.050;2023-04-24T15:34:30;97544.63;;;16.16;56.04
13235;BME280;6683;48.506;9.050;2023-04-24T15:37:33;97542.75;;;16.16;56.08
13235;BME280;6683;48.506;9.050;2023-04-24T15:40:37;97548.09;;;16.16;56.16
13235;BME280;6683;48.506;9.050;2023-04-24T15:43:39;97536.88;;;16.14;56.00
13235;BME280;6683;48.506;9.050;2023-04-24T15:46:42;97538.97;;;16.12;55.75
13235;BME280;6683;48.506;9.050;2023-04-24T15:49:45;97542.91;;;16.10;55.89
13235;BME280;6683;48.506;9.050;2023-04-24T15:52:48;97536.75;;;16.09;55.95
13235;BME280;6683;48.506;9.050;2023-04-24T15:55:52;97538.59;;;16.09;55.95
13235;BME280;6683;48.506;9.050;2023-04-24T15:58:55;97539.75;;;16.13;55.92
13235;BME280;6683;48.506;9.050;2023-04-24T16:01:57;97530.47;;;16.15;56.13
13235;BME280;6683;48.506;9.050;2023-04-24T16:05:00;97536.94;;;16.19;56.00
13235;BME280;6683;48.506;9.050;2023-04-24T16:08:04;97529.53;;;16.21;56.06
13235;BME280;6683;48.506;9.050;2023-04-24T16:11:08;97533.31;;;16.25;55.77
13235;BME280;6683;48.506;9.050;2023-04-24T16:14:11;97528.94;;;16.31;55.98
13235;BME280;6683;48.506;9.050;2023-04-24T16:17:14;97523.91;;;16.34;56.05
13235;BME280;6683;48.506;9.050;2023-04-24T16:20:17;97519.97;;;16.37;56.00
13235;BME280;6683;48.506;9.050;2023-04-24T16:23:19;97517.06;;;16.38;56.08